Date,TemperatureHighF,TemperatureAvgF,TemperatureLowF,DewpointHighF,DewpointAvgF,DewpointLowF,HumidityHigh,HumidityAvg,HumidityLow,PressureMaxIn,PressureMinIn,WindSpeedMaxMPH,WindSpeedAvgMPH,GustSpeedMaxMPH,PrecipitationSumIn
2013-1-1,38,31,24,38,30,20,100,93,86,29.85,29.60,9,4,12,0.00
2013-1-2,39,28,17,29,23,15,96,84,67,29.87,29.77,7,2,9,0.00
2013-1-3,47,33,22,32,26,20,96,77,46,30.02,29.87,4,1,6,0.00
2013-1-4,49,34,20,31,25,19,95,71,42,30.04,29.87,8,2,11,0.00
2013-1-5,48,40,33,35,31,25,87,72,57,29.87,29.72,11,4,15,0.00
2013-1-6,48,37,27,30,24,21,88,63,35,29.97,29.82,6,1,15,0.00
2013-1-7,52,38,22,32,27,18,90,65,42,29.90,29.66,10,3,15,0.00
2013-1-8,55,43,32,45,35,27,97,75,50,29.73,29.58,11,4,16,0.12
2013-1-9,54,50,46,49,46,41,100,86,63,29.85,29.68,11,6,15,0.11
2013-1-10,55,51,49,55,50,46,100,97,79,29.68,29.32,10,5,15,0.17
2013-1-11,70,56,45,50,46,43,97,73,44,29.39,29.20,16,7,26,0.01
2013-1-12,61,40,26,51,31,22,94,74,32,29.63,29.30,15,7,19,0.21
2013-1-13,30,24,19,22,18,13,86,76,60,29.96,29.56,10,5,16,0.00
2013-1-14,34,26,19,19,16,13,85,68,47,30.06,29.90,13,5,21,0.01
2013-1-15,34,27,21,20,17,14,87,67,44,29.90,29.75,8,3,13,0.00
2013-1-16,49,32,18,23,18,14,87,59,31,29.79,29.67,7,1,9,0.00
2013-1-17,53,41,30,33,28,20,80,62,42,30.03,29.77,10,3,16,0.00
2013-1-18,58,45,29,35,30,25,89,60,36,30.04,29.73,14,6,21,0.00
2013-1-19,66,52,42,39,36,34,75,56,36,29.73,29.60,10,4,15,0.00
2013-1-20,64,47,34,44,33,19,79,59,46,29.83,29.63,11,5,19,0.00
2013-1-21,41,32,25,19,16,13,65,53,34,29.97,29.83,11,5,14,0.00
2013-1-22,53,36,21,31,24,16,86,63,41,29.88,29.73,9,3,13,0.00
2013-1-23,61,45,31,45,35,25,80,69,51,29.81,29.65,8,4,15,0.00
2013-1-24,47,41,36,39,28,23,75,59,47,29.81,29.64,12,7,20,0.00
2013-1-25,37,35,33,26,25,23,72,66,61,29.79,29.66,5,2,6,0.00
2013-1-26,54,49,46,36,33,31,66,54,46,29.80,29.64,13,8,17,0.00
2013-1-27,60,53,46,56,49,36,96,88,68,29.64,29.41,13,9,18,0.01
2013-1-28,74,68,57,64,62,56,97,83,68,29.45,29.26,16,11,24,0.00
2013-1-29,70,59,43,64,56,40,99,89,78,29.26,28.93,15,7,24,1.15
2013-1-30,43,37,27,40,29,24,90,72,55,29.63,29.11,16,7,33,0.00
2013-1-31,50,32,24,30,25,22,94,77,36,29.70,29.57,9,2,33,0.00
2013-2-1,43,36,24,22,18,10,64,48,37,30.02,29.72,13,5,18,0.00
2013-2-2,54,33,27,30,24,22,84,70,39,29.83,29.73,8,2,13,0.00
2013-2-4,66,58,45,43,36,31,66,46,29,29.48,29.33,8,4,13,0.00
2013-2-5,70,49,32,45,36,29,90,63,30,29.58,29.45,4,1,10,0.00
2013-2-6,64,52,38,51,41,33,84,67,51,29.59,29.42,15,7,23,0.00
2013-2-7,60,53,51,56,50,45,96,88,76,29.45,29.36,10,6,21,0.05
2013-2-8,50,43,35,35,34,31,87,71,53,29.87,29.70,9,2,14,0.00
2013-2-9,44,40,38,42,37,34,98,87,76,29.71,29.29,14,9,21,0.12
2013-2-10,62,52,44,52,36,26,100,59,28,29.59,29.17,13,7,20,0.12
2013-2-11,52,43,35,29,26,23,69,51,33,29.77,29.59,8,2,15,0.00
2013-2-12,42,38,33,39,32,26,97,81,59,29.67,29.49,9,4,15,0.35
2013-2-13,56,42,34,39,34,30,97,75,42,29.60,29.49,10,3,13,0.01
2013-2-14,58,46,35,36,32,27,76,58,42,29.74,29.51,12,4,17,0.00
2013-2-15,46,37,30,32,20,11,76,52,28,29.95,29.74,12,5,17,0.00
2013-2-16,44,35,27,27,17,10,81,51,28,29.95,29.63,12,4,18,0.00
2013-2-17,69,51,34,35,30,22,73,47,24,29.63,29.30,16,8,22,0.00
2013-2-18,61,54,39,52,39,26,75,57,41,29.68,29.16,18,11,29,0.00
2013-2-19,50,39,28,27,24,22,81,56,34,29.90,29.68,7,2,27,0.00
2013-2-20,38,34,32,34,29,23,97,83,56,29.83,29.56,11,5,16,0.35
2013-2-21,33,32,32,32,30,29,97,93,85,29.56,29.29,15,7,20,0.46
2013-2-22,38,34,28,22,20,18,73,58,47,29.71,29.63,8,3,13,0.01
2013-2-23,48,33,21,26,22,17,88,65,40,29.69,29.50,5,1,13,0.00
2013-2-24,45,34,30,35,28,24,82,77,68,29.53,29.34,11,3,16,0.00
2013-2-25,46,39,33,38,36,32,98,88,67,29.36,28.98,21,9,26,1.13
2013-2-26,42,37,32,34,32,30,99,85,72,29.47,29.01,13,8,26,0.08
2013-2-27,48,37,31,32,29,26,89,72,44,29.70,29.46,14,5,26,0.00
2013-2-28,47,38,30,31,28,26,88,70,53,29.78,29.70,10,5,21,0.00
2013-3-1,38,35,31,28,25,18,73,66,52,29.88,29.75,11,6,18,0.00
2013-3-2,47,36,28,22,20,18,69,54,33,29.95,29.75,9,4,18,0.00
2013-3-3,62,49,32,34,29,21,69,47,32,29.74,29.22,15,9,22,0.00
2013-3-4,74,56,46,42,38,34,70,53,31,29.48,29.10,15,8,25,0.00
2013-3-5,49,42,36,37,25,17,89,53,32,29.91,29.49,17,9,29,0.14
2013-3-6,51,39,27,27,22,19,73,52,31,30.00,29.76,10,2,29,0.00
2013-3-7,65,50,36,32,29,26,72,47,26,29.78,29.61,16,7,20,0.00
2013-3-8,59,52,46,42,37,32,72,57,46,29.72,29.50,15,9,20,0.00
2013-3-9,62,58,53,58,50,38,97,75,47,29.49,29.17,17,9,22,0.36
2013-3-10,55,43,33,53,38,25,93,82,72,29.58,29.13,13,8,21,0.05
2013-3-11,49,35,29,26,24,18,80,65,31,29.60,29.53,9,6,21,0.00
2013-3-12,60,53,44,38,30,25,63,42,28,29.88,29.74,10,5,17,0.00
2013-3-13,55,49,37,27,24,20,63,39,27,30.03,29.88,9,3,14,0.00
2013-3-14,78,60,42,45,36,26,60,43,26,29.88,29.60,13,5,18,0.00
2013-3-15,64,61,60,46,45,45,60,55,50,29.62,29.58,5,4,10,0.00
2013-3-17,45,44,42,44,42,40,96,94,92,29.35,29.22,8,3,16,0.00
2013-3-18,60,48,40,42,36,27,96,69,30,29.58,29.23,9,4,16,0.00
2013-3-19,59,47,36,32,29,26,78,52,31,29.78,29.55,14,5,21,0.00
2013-3-20,51,43,33,34,26,20,89,56,31,29.94,29.62,13,4,21,0.00
2013-3-21,42,39,37,35,30,22,87,69,47,29.62,29.28,17,10,26,0.03
2013-3-22,46,41,36,39,37,35,96,87,76,29.46,29.32,10,5,26,0.25
2013-3-23,43,41,38,42,39,36,98,94,85,29.45,29.26,10,4,18,0.05
2013-3-24,40,36,31,38,27,20,97,73,47,29.74,29.30,16,10,24,0.01
2013-3-25,40,34,29,24,20,17,77,59,41,29.94,29.73,13,7,26,0.00
2013-3-26,52,38,24,24,22,19,85,55,30,30.02,29.84,6,2,26,0.00
2013-3-27,66,49,34,34,28,24,70,47,28,29.84,29.62,16,8,22,0.00
2013-3-28,72,59,45,52,43,31,68,56,42,29.71,29.57,13,7,18,0.00
2013-3-29,70,57,54,59,41,-100,97,71,66,29.65,29.57,12,-83,17,2.08
2013-3-30,76,64,54,62,58,53,99,81,59,29.59,29.33,13,6,27,0.35
2013-3-31,70,61,53,59,48,42,98,66,38,29.52,29.37,18,4,24,0.00
2013-4-1,61,51,45,46,42,32,93,71,52,29.69,29.49,14,6,19,0.00
2013-4-2,45,40,38,39,37,32,97,87,60,29.77,29.67,15,10,25,0.51
2013-4-3,45,41,39,39,35,29,95,78,57,29.78,29.69,13,5,17,0.33
2013-4-4,59,48,39,41,37,32,96,69,39,29.74,29.62,9,3,13,0.28
2013-4-5,70,55,38,46,42,36,96,65,35,29.75,29.48,9,4,14,0.00
2013-4-6,77,66,55,52,49,45,74,57,39,29.47,29.29,18,8,27,0.00
2013-4-7,66,64,59,60,57,52,87,79,64,29.39,29.22,16,7,23,0.00
2013-4-8,74,68,63,63,60,58,92,78,66,29.27,29.15,16,9,23,0.01
2013-4-9,80,72,50,65,62,44,83,70,57,29.30,29.14,15,9,21,0.00
2013-4-10,49,40,36,43,36,32,94,89,80,29.51,29.27,13,7,21,0.39
2013-4-11,56,46,36,36,31,28,83,57,37,29.50,29.32,9,4,16,0.00
2013-4-12,63,49,37,39,33,28,90,58,31,29.57,29.36,8,2,15,0.00
2013-4-13,53,52,50,39,38,38,65,61,57,29.57,29.54,4,2,13,0.00
2013-4-15,76,66,55,60,54,46,76,66,56,29.36,29.18,10,6,15,0.07
2013-4-16,61,54,51,54,49,44,92,81,73,29.50,29.34,10,5,15,0.00
2013-4-17,82,69,52,70,62,49,94,79,62,29.44,29.04,15,8,25,0.02
2013-4-18,75,47,41,67,40,26,100,77,55,29.63,28.99,19,9,46,2.92
2013-4-19,63,48,34,35,29,22,75,49,26,29.71,29.58,10,5,24,0.00
2013-4-20,71,57,41,42,37,32,83,50,24,29.70,29.55,15,5,26,0.00
2013-4-21,70,60,52,46,43,38,79,55,34,29.74,29.60,13,6,21,0.01
2013-4-22,76,63,50,53,47,42,77,58,42,29.66,29.36,17,7,23,0.00
2013-4-23,67,46,37,55,42,34,95,86,56,29.75,29.30,10,6,21,0.08
2013-4-24,57,45,35,34,30,22,88,58,32,29.87,29.73,9,4,19,0.00
2013-4-25,69,56,33,41,34,28,92,50,23,29.91,29.69,9,2,14,0.00
2013-4-26,62,56,53,52,48,41,95,77,47,29.72,29.58,15,7,21,0.11
2013-4-27,57,54,52,53,52,51,98,91,81,29.63,29.48,12,3,14,0.08
2013-4-28,78,64,50,60,55,48,94,73,51,29.57,29.35,10,2,11,0.00
2013-4-29,87,73,60,65,57,52,89,61,32,29.36,29.21,14,7,20,0.00
2013-4-30,74,69,64,61,58,56,75,68,55,29.32,29.24,12,6,19,0.00
2013-5-2,47,40,36,42,37,34,95,89,81,29.92,29.77,14,9,22,0.32
2013-5-3,59,48,36,36,31,26,93,59,29,29.90,29.51,16,7,26,0.00
2013-5-4,49,44,40,45,40,35,94,87,66,29.58,29.43,9,3,20,0.19
2013-5-5,60,46,44,50,31,-100,95,74,69,29.67,29.58,6,-99,14,0.00
2013-5-6,69,49,47,55,31,-100,98,71,58,29.66,29.53,5,-132,14,0.00
2013-5-7,78,59,47,58,39,-100,98,62,38,29.61,29.46,7,-92,11,0.00
2013-5-8,83,65,58,63,44,-100,89,57,41,29.51,29.36,14,-75,21,0.05
2013-5-9,73,55,59,66,35,-100,100,76,70,29.47,29.35,9,-167,12,0.45
2013-5-10,72,50,58,65,20,-100,99,58,58,29.58,29.42,7,-239,14,0.02
2013-5-11,76,56,53,59,28,-100,97,52,32,29.74,29.58,11,-145,16,0.00
2013-5-12,71,52,47,48,18,-100,77,40,30,29.80,29.64,8,-161,11,0.00
2013-5-13,88,64,56,60,31,-100,70,41,31,29.65,29.50,11,-130,17,0.00
2013-5-14,90,67,66,59,30,-100,58,36,30,29.54,29.40,13,-156,17,0.00
2013-5-15,74,66,62,68,54,-100,100,78,49,29.46,29.30,13,-49,17,0.49
2013-5-16,75,54,62,66,31,-100,100,70,69,29.37,29.29,8,-196,17,0.01
2013-5-17,81,60,60,72,41,-100,100,74,70,29.42,29.34,8,-156,10,0.00
2013-5-18,87,65,71,75,40,-100,97,66,66,29.37,29.22,13,-182,19,0.00
2013-5-19,82,63,65,72,36,-100,96,60,66,29.38,29.06,19,-190,37,0.24
2013-5-20,83,58,70,73,30,-100,88,62,69,29.26,29.10,15,-226,37,0.01
2013-5-21,71,34,58,65,-10,-100,99,54,82,29.41,29.10,17,-430,20,0.42
2013-5-22,81,51,55,61,12,-100,97,46,43,29.43,29.32,7,-287,12,0.00
2013-5-23,66,51,60,62,30,-100,99,73,77,29.65,29.42,10,-182,14,0.23
2013-5-24,77,53,59,67,21,-100,100,57,68,29.73,29.61,12,-252,15,0.00
2013-5-25,83,64,64,70,42,-100,90,63,61,29.69,29.50,12,-129,18,0.00
2013-5-26,83,66,68,71,44,-100,93,65,63,29.57,29.42,14,-138,20,0.00
2013-5-27,83,65,68,70,40,-100,92,60,64,29.45,29.23,17,-162,28,0.00
2013-5-28,82,68,72,69,46,-100,87,63,62,29.31,29.21,15,-120,27,0.04
2013-5-29,79,63,64,70,41,-100,99,67,72,29.32,29.18,14,-152,29,0.64
2013-5-30,82,60,64,74,35,-100,100,68,74,29.26,29.13,19,-199,33,0.11
2013-5-31,87,66,72,75,41,-100,95,64,65,29.26,29.07,16,-177,24,0.00
2013-6-1,82,54,65,73,18,-100,98,50,46,29.50,29.12,18,-271,22,0.02
2013-6-2,71,53,59,59,27,-100,89,59,61,29.58,29.50,8,-179,12,0.00
2013-6-3,80,60,53,67,39,-100,96,66,59,29.54,29.34,9,-134,15,0.00
2013-6-4,80,54,67,70,21,-100,90,57,69,29.49,29.28,11,-273,15,0.00
2013-6-5,83,59,66,70,33,-100,97,63,61,29.48,29.34,9,-200,14,0.00
2013-6-6,76,58,65,66,31,-100,95,58,49,29.46,29.40,8,-182,13,0.00
2013-6-7,80,63,60,61,39,-100,90,57,43,29.50,29.40,9,-114,14,0.00
2013-6-8,82,63,63,66,36,-100,85,54,43,29.43,29.28,11,-149,17,0.00
2013-6-9,89,69,69,66,41,-100,80,49,35,29.39,29.28,11,-127,15,0.00
2013-6-10,94,70,71,71,37,-100,82,47,40,29.41,29.32,10,-180,16,0.00
2013-6-11,94,72,76,73,42,-100,73,49,43,29.44,29.34,13,-160,22,0.00
2013-6-12,94,72,75,75,44,-100,84,53,49,29.45,29.36,14,-156,22,0.00
2013-6-13,92,80,77,75,63,-100,81,63,55,29.50,29.39,6,-54,22,0.00
2013-6-14,95,70,73,76,43,-100,86,57,50,29.48,29.36,10,-173,13,0.00
2013-6-15,86,65,73,76,44,-100,94,70,66,29.48,29.41,13,-165,17,0.03
2013-6-16,90,66,68,76,47,-100,100,72,62,29.49,29.36,13,-142,25,1.72
2013-6-17,79,54,68,71,26,-100,98,65,74,29.49,29.34,8,-248,11,0.16
2013-6-18,86,66,66,71,43,-100,97,63,49,29.53,29.42,8,-145,12,0.00
2013-6-19,86,65,67,71,39,-100,93,58,51,29.53,29.41,10,-172,15,0.00
2013-6-20,91,74,73,77,54,-100,86,65,60,29.51,29.40,13,-102,21,0.00
2013-6-21,92,69,76,75,39,-100,89,53,46,29.52,29.43,14,-184,18,0.00
2013-6-22,91,74,74,73,50,-100,88,57,48,29.50,29.36,13,-111,19,0.00
2013-6-23,91,70,76,74,41,-100,87,53,50,29.43,29.34,14,-169,19,0.00
2013-6-24,91,70,75,73,42,-100,88,55,49,29.49,29.37,13,-165,21,0.00
2013-6-25,90,72,76,74,49,-100,84,61,57,29.41,29.27,15,-128,20,0.00
2013-6-26,95,71,77,78,43,-100,82,55,55,29.38,29.28,11,-178,18,0.00
2013-6-27,97,74,77,80,46,-100,93,55,52,29.43,29.30,9,-164,18,0.00
2013-6-28,97,73,78,72,41,-100,75,45,37,29.43,29.30,7,-155,14,0.00
2013-6-29,90,69,71,65,32,-100,75,37,32,29.40,29.28,11,-167,26,0.00
2013-6-30,82,64,68,60,32,-100,71,43,44,29.47,29.35,11,-158,26,0.00
2013-7-1,83,66,66,62,35,-100,79,45,33,29.56,29.47,9,-123,18,0.00
2013-7-2,83,64,61,60,33,-100,84,45,32,29.60,29.51,8,-141,15,0.00
2013-7-3,85,62,58,61,31,-100,88,47,33,29.60,29.47,7,-163,15,0.00
2013-7-4,89,69,62,66,45,-100,85,55,40,29.54,29.42,12,-103,23,0.00
2013-7-5,90,74,66,67,52,-100,88,56,38,29.50,29.37,9,-75,12,0.00
2013-7-6,88,67,71,69,40,-100,75,53,49,29.47,29.39,11,-154,15,0.00
2013-7-7,93,70,71,72,40,-100,81,50,42,29.51,29.42,10,-165,15,0.00
2013-7-8,93,72,74,75,47,-100,82,57,51,29.56,29.47,10,-143,13,0.00
2013-7-9,97,74,78,73,43,-100,79,48,44,29.54,29.41,10,-164,19,0.00
2013-7-10,102,76,78,74,43,-100,78,45,34,29.47,29.36,8,-159,19,0.00
2013-7-11,97,73,76,76,43,-100,87,52,47,29.46,29.35,9,-173,11,0.00
2013-7-12,94,77,80,75,53,-100,78,56,49,29.49,29.40,10,-111,13,0.00
2013-7-13,93,72,74,71,40,-100,76,47,42,29.52,29.38,8,-155,13,0.00
2013-7-14,89,67,72,67,39,-100,82,51,37,29.53,29.40,11,-150,14,0.00
2013-7-15,79,60,65,70,37,-100,100,67,68,29.66,29.52,13,-174,18,0.18
2013-7-16,88,64,69,75,42,-100,99,69,56,29.73,29.65,19,-167,32,0.26
2013-7-17,91,70,71,74,46,-100,96,60,50,29.78,29.65,9,-150,32,0.00
2013-7-18,96,70,74,75,39,-100,93,51,41,29.68,29.49,5,-190,7,0.00
2013-7-19,97,70,76,74,38,-100,83,50,43,29.51,29.36,7,-194,8,0.00
2013-7-20,95,69,74,74,38,-100,86,52,43,29.43,29.29,8,-191,13,0.00
2013-7-21,91,64,71,78,38,-100,100,67,62,29.42,29.28,12,-200,14,0.81
2013-7-22,95,73,74,79,48,-100,99,60,52,29.39,29.26,11,-147,15,0.60
2013-7-23,100,74,80,77,42,-100,78,49,45,29.44,29.24,7,-185,20,0.00
2013-7-24,88,83,75,73,72,71,91,71,58,29.50,29.42,5,2,13,0.67
2013-7-25,86,65,73,76,42,-100,98,66,67,29.58,29.47,5,-181,13,0.00
2013-7-26,82,59,69,74,34,-100,100,70,72,29.52,29.44,9,-210,15,0.00
2013-7-27,83,62,67,70,40,-100,100,66,51,29.57,29.45,6,-162,9,0.00
2013-7-28,84,63,67,71,37,-100,90,60,61,29.52,29.43,11,-179,19,0.00
2013-7-29,88,66,70,76,41,-100,91,63,64,29.50,29.39,12,-179,24,0.00
2013-7-30,93,68,70,78,45,-100,97,68,59,29.52,29.42,10,-164,24,0.94
2013-7-31,90,70,75,78,47,-100,97,66,62,29.56,29.47,10,-155,12,0.00
2013-8-1,91,69,73,74,44,-100,92,59,44,29.57,29.42,9,-157,10,0.00
2013-8-2,95,69,76,80,43,-100,91,62,59,29.44,29.30,8,-185,12,0.00
2013-8-3,84,58,72,76,29,-100,99,63,69,29.53,29.34,12,-251,15,0.11
2013-8-4,87,70,76,80,52,-100,94,73,72,29.57,29.43,12,-130,13,0.00
2013-8-5,98,73,75,78,46,-100,93,57,48,29.47,29.28,8,-161,14,0.00
2013-8-6,99,76,78,78,45,-100,84,49,45,29.34,29.24,9,-164,14,0.00
2013-8-7,94,70,79,80,43,-100,85,57,57,29.36,29.28,11,-182,14,0.00
2013-8-8,84,64,73,77,40,-100,96,67,75,29.42,29.30,8,-193,15,0.01
2013-8-9,84,64,71,75,41,-100,97,69,72,29.53,29.37,11,-182,11,0.32
2013-8-10,72,37,68,70,-12,-100,94,48,90,29.57,29.54,4,-476,13,0.00